Weather at Aitutaki Airport

Public forecast

Using degrees Celsius for public forecast. Weather courtesy of forecast.io.

Current aviation weather report (METAR) for Aitutaki Airport

Report is more than 6 hours old.

2022/11/14 15:00 (retrieved 2 years ago)

NCAI 141500Z AUTO 15009KT //// ////// 24/20 Q1011

Closest aviation forecast (TAF) to Aitutaki Airport

Forecast is more than 12 hours old.

Closest forecast is Rarotonga International Airport, 142.4 nm (263.8 km) S.

2023/02/22 18:00 (retrieved 1 year ago)

TAF NCRG 221710Z 2218/2318 VRB03KT 9999 FEW024